Impacts TAF Board
For situational awareness. Not to be used for flight planning purposes.
IDs:

KSAT - San Antonio Intl, TX, US

Issued at 0520 UTC 01 Dec 2022
Updated at 0649 UTC 01 Dec 2022
Potential Impact None Slight Moderate High
Time0551Z 01/07Z 01/08Z 01/09Z 01/10Z 01/11Z 01/12Z 01/13Z 01/14Z 01/15Z 01/16Z 01/17Z 01/18Z 01/19Z>>
Type OBS PRVL PRVL PRVL PRVL PRVL PRVL PRVL PRVL PRVL PRVL PRVL PRVL PRVL
VIS 10 >6 >6 >6 >6 >6 >6 >6 >6 >6 >6 >6 >6 >6
CIG -- -- -- -- -- 50 50 50 50 50 50 50 50 50
Cover CLR FEW FEW FEW FEW BKN BKN BKN BKN BKN BKN BKN BKN BKN
FltCat VFR VFR VFR VFR VFR VFR VFR VFR VFR VFR VFR VFR VFR VFR
WX -- -- -- -- -- -- -- -- -- -- -- -- -- --
WDir 20 10 10 10 10 30 30 30 30 30 30 30 30 30
WSpd 4 5 5 5 5 4 4 4 4 4 4 4 4 4
WGst -- -- -- -- -- -- -- -- -- -- -- -- -- --
WSHgt -- -- -- -- -- -- -- -- -- -- -- -- -- --
WSDir -- -- -- -- -- -- -- -- -- -- -- -- -- --
WSSpd -- -- -- -- -- -- -- -- -- -- -- -- -- --
R04/22
XWnd 1 3 3 3 3 1 1 1 1 1 1 1 1 1
HWnd 4 4 4 4 4 4 4 4 4 4 4 4 4 4
R13/31
XWnd 4 4 4 4 4 4 4 4 4 4 4 4 4 4
HWnd -1 -3 -3 -3 -3 -1 -1 -1 -1 -1 -1 -1 -1 -1
Raw TAF
KSAT 010520Z 0106/0212 01005KT P6SM FEW250
  FM011100 03004KT P6SM BKN050
  FM012000 07005KT P6SM OVC020
  FM020600 12005KT 2SM BR OVC006


Raw METAR
KSAT 010551Z 02004KT 10SM CLR 07/M03 A3037 RMK AO2 SLP274 T00671033 10122 20067 401670061 58006
KSAT 010451Z 01004KT 10SM CLR 07/M03 A3037 RMK AO2 SLP277 T00721033
KSAT 010351Z 02004KT 10SM CLR 08/M03 A3038 RMK AO2 SLP281 T00781033

METAR Board
Radar Display
Forecast Discussion
For situational awareness. Not to be used for flight planning purposes.